KDQH

Douglas Municipal Airport

Douglas, Georgia, USA
METAR KDQH 201515Z AUTO 16006KT 10SM OVC007 21/20 A3042 RMK AO2
Observed Flight Rules
Feb-20 @ 15:15 UTC (2 hours ago) Instrument Flight Rules
Wind Visibility Clouds
160° at 6 knots 10 miles
  • Overcast at 700' AGL
Temperatures Readings
Current 21°C / 70°F
Dewpoint 20°C / 68°F
Humidity 94%
Altimeter 30.42" Hg
Pressure 1030 hPa
Elevation 78
METAR KDQH 201515Z AUTO 16006KT 10SM OVC007 21/20 A3042 RMK AO2
Observed Flight Rules
Feb-20 @ 15:15 UTC
(2 hours ago)
IFR
Wind Visibility
160° at 6 knots 10 miles
Clouds
  • Overcast at 700' AGL
Temperature Dewpoint
21°C / 70°F 20°C / 68°F
Humidity Altimeter Pressure
94% 30.42" Hg 1030 hPa